Terminal Aerodrome Forecast
Issued by NWS Grand Forks, ND

Home | Current Version | Previous Version | Text Only | Print | Product List | Glossary On
Versions: 1 2 3 4 5 6 7 8 9 10 11 12 13 14 15 16
000
FTUS43 KFGF 251515 CCA
TAFGFK
TAF COR
KGFK 251515Z 2515/2612 08007KT P6SM BKN090
      TEMPO 2516/2517 -TSRA BKN090CB
     FM252300 10012KT 5SM -TSRA BKN020CB
     FM260200 16009KT P6SM -SHRA BKN015
     FM260500 19008KT P6SM BKN015=

USA.gov is the U.S. government's official web portal to all federal, state and local government web resources and services.